sensor_id;sensor_type;location;lat;lon;timestamp;pressure;altitude;pressure_sealevel;temperature;humidity
37710;BME280;60223;34.854;-92.408;2022-09-21T00:01:45;100410.41;;;27.43;25.21
37710;BME280;60223;34.854;-92.408;2022-09-21T00:04:10;100415.01;;;27.74;24.93
37710;BME280;60223;34.854;-92.408;2022-09-21T00:06:37;100411.71;;;26.95;25.31
37710;BME280;60223;34.854;-92.408;2022-09-21T00:09:01;100414.12;;;27.48;24.72
37710;BME280;60223;34.854;-92.408;2022-09-21T00:11:28;100409.34;;;26.93;24.97
37710;BME280;60223;34.854;-92.408;2022-09-21T00:13:56;100409.37;;;26.50;25.81
37710;BME280;60223;34.854;-92.408;2022-09-21T00:16:18;100409.26;;;24.51;27.52
37710;BME280;60223;34.854;-92.408;2022-09-21T00:18:44;100404.82;;;26.90;25.09
37710;BME280;60223;34.854;-92.408;2022-09-21T00:21:12;100407.44;;;23.82;27.96
37710;BME280;60223;34.854;-92.408;2022-09-21T00:23:37;100403.04;;;26.31;25.61
37710;BME280;60223;34.854;-92.408;2022-09-21T00:26:06;100407.57;;;25.59;25.92
37710;BME280;60223;34.854;-92.408;2022-09-21T00:28:26;100405.66;;;24.47;27.20
37710;BME280;60223;34.854;-92.408;2022-09-21T00:30:52;100405.71;;;24.24;27.24
37710;BME280;60223;34.854;-92.408;2022-09-21T00:33:17;100403.53;;;25.30;26.37
37710;BME280;60223;34.854;-92.408;2022-09-21T00:35:42;100403.80;;;25.33;25.92
37710;BME280;60223;34.854;-92.408;2022-09-21T00:38:06;100408.66;;;24.31;26.97
37710;BME280;60223;34.854;-92.408;2022-09-21T00:40:35;100409.19;;;26.15;26.60
37710;BME280;60223;34.854;-92.408;2022-09-21T00:43:11;100412.27;;;27.17;25.09
37710;BME280;60223;34.854;-92.408;2022-09-21T00:45:25;100411.24;;;27.93;24.56
37710;BME280;60223;34.854;-92.408;2022-09-21T00:47:53;100416.37;;;28.27;23.80
37710;BME280;60223;34.854;-92.408;2022-09-21T01:02:24;100434.14;;;29.88;23.23
37710;BME280;60223;34.854;-92.408;2022-09-21T01:04:52;100428.61;;;29.83;22.89
37710;BME280;60223;34.854;-92.408;2022-09-21T01:07:29;100428.96;;;29.96;22.96
37710;BME280;60223;34.854;-92.408;2022-09-21T01:09:49;100430.18;;;30.08;22.94
37710;BME280;60223;34.854;-92.408;2022-09-21T01:12:16;100434.61;;;30.14;23.06
37710;BME280;60223;34.854;-92.408;2022-09-21T01:14:46;100435.26;;;30.25;23.13
37710;BME280;60223;34.854;-92.408;2022-09-21T01:17:05;100439.66;;;30.36;23.14
37710;BME280;60223;34.854;-92.408;2022-09-21T01:19:42;100445.62;;;30.47;23.19
37710;BME280;60223;34.854;-92.408;2022-09-21T01:21:59;100449.63;;;30.55;23.20
37710;BME280;60223;34.854;-92.408;2022-09-21T01:24:22;100449.71;;;30.63;23.24
37710;BME280;60223;34.854;-92.408;2022-09-21T01:26:53;100453.04;;;30.74;23.22
37710;BME280;60223;34.854;-92.408;2022-09-21T01:29:15;100453.98;;;30.76;23.31
37710;BME280;60223;34.854;-92.408;2022-09-21T01:31:36;100457.85;;;29.59;24.56
37710;BME280;60223;34.854;-92.408;2022-09-21T01:34:00;100460.96;;;27.64;25.37
37710;BME280;60223;34.854;-92.408;2022-09-21T01:36:26;100462.42;;;28.18;25.14
37710;BME280;60223;34.854;-92.408;2022-09-21T01:38:53;100462.87;;;27.29;25.67
37710;BME280;60223;34.854;-92.408;2022-09-21T01:41:13;100463.12;;;26.66;26.23
37710;BME280;60223;34.854;-92.408;2022-09-21T01:43:39;100464.40;;;27.03;25.77
37710;BME280;60223;34.854;-92.408;2022-09-21T01:46:06;100463.64;;;26.69;25.47
37710;BME280;60223;34.854;-92.408;2022-09-21T01:48:30;100465.74;;;26.89;25.22
37710;BME280;60223;34.854;-92.408;2022-09-21T01:51:13;100467.04;;;25.80;26.00
37710;BME280;60223;34.854;-92.408;2022-09-21T01:53:25;100469.57;;;25.41;26.35
37710;BME280;60223;34.854;-92.408;2022-09-21T01:55:48;100472.55;;;24.97;26.58
37710;BME280;60223;34.854;-92.408;2022-09-21T01:58:17;100477.49;;;24.64;26.71
37710;BME280;60223;34.854;-92.408;2022-09-21T02:00:38;100481.48;;;26.01;25.06
37710;BME280;60223;34.854;-92.408;2022-09-21T02:03:08;100483.66;;;26.28;24.72
37710;BME280;60223;34.854;-92.408;2022-09-21T02:05:31;100484.81;;;27.80;23.41
37710;BME280;60223;34.854;-92.408;2022-09-21T02:07:57;100487.08;;;27.86;23.06
37710;BME280;60223;34.854;-92.408;2022-09-21T02:10:26;100487.28;;;25.04;25.15
37710;BME280;60223;34.854;-92.408;2022-09-21T02:12:46;100492.44;;;26.52;25.15
37710;BME280;60223;34.854;-92.408;2022-09-21T02:15:12;100492.80;;;27.35;24.20
37710;BME280;60223;34.854;-92.408;2022-09-21T02:17:41;100493.45;;;27.79;23.93
37710;BME280;60223;34.854;-92.408;2022-09-21T02:20:12;100492.28;;;28.35;23.36
37710;BME280;60223;34.854;-92.408;2022-09-21T02:22:32;100491.08;;;28.42;23.11
37710;BME280;60223;34.854;-92.408;2022-09-21T02:25:06;100493.23;;;28.91;22.90
37710;BME280;60223;34.854;-92.408;2022-09-21T02:27:29;100493.73;;;28.91;22.88
37710;BME280;60223;34.854;-92.408;2022-09-21T02:29:52;100496.59;;;29.31;22.71
37710;BME280;60223;34.854;-92.408;2022-09-21T02:32:16;100496.90;;;29.02;22.69
37710;BME280;60223;34.854;-92.408;2022-09-21T02:34:42;100497.01;;;29.40;22.72
37710;BME280;60223;34.854;-92.408;2022-09-21T02:37:04;100495.67;;;29.61;22.68
37710;BME280;60223;34.854;-92.408;2022-09-21T02:39:30;100495.78;;;29.47;22.73
37710;BME280;60223;34.854;-92.408;2022-09-21T02:42:04;100494.30;;;29.82;22.72
37710;BME280;60223;34.854;-92.408;2022-09-21T02:44:19;100495.14;;;29.81;22.64
37710;BME280;60223;34.854;-92.408;2022-09-21T02:46:45;100492.56;;;29.79;22.71
37710;BME280;60223;34.854;-92.408;2022-09-21T02:49:12;100495.99;;;29.39;22.88
37710;BME280;60223;34.854;-92.408;2022-09-21T02:51:35;100500.17;;;30.09;22.69
37710;BME280;60223;34.854;-92.408;2022-09-21T02:54:02;100505.73;;;29.72;22.66
37710;BME280;60223;34.854;-92.408;2022-09-21T02:56:27;100508.63;;;29.71;22.77
37710;BME280;60223;34.854;-92.408;2022-09-21T02:58:58;100507.16;;;29.86;22.76
37710;BME280;60223;34.854;-92.408;2022-09-21T03:01:18;100505.97;;;30.22;22.81
37710;BME280;60223;34.854;-92.408;2022-09-21T03:03:44;100507.47;;;29.95;22.88
37710;BME280;60223;34.854;-92.408;2022-09-21T03:06:06;100508.53;;;29.98;22.94
37710;BME280;60223;34.854;-92.408;2022-09-21T03:08:34;100509.86;;;30.65;22.60
37710;BME280;60223;34.854;-92.408;2022-09-21T03:10:59;100509.31;;;30.34;23.08
37710;BME280;60223;34.854;-92.408;2022-09-21T03:13:25;100512.87;;;30.41;23.06
37710;BME280;60223;34.854;-92.408;2022-09-21T03:15:49;100517.35;;;28.14;24.70
37710;BME280;60223;34.854;-92.408;2022-09-21T03:18:16;100510.30;;;27.33;25.34
37710;BME280;60223;34.854;-92.408;2022-09-21T03:20:43;100509.50;;;26.50;25.85
37710;BME280;60223;34.854;-92.408;2022-09-21T03:23:06;100513.91;;;26.99;25.33
37710;BME280;60223;34.854;-92.408;2022-09-21T03:25:33;100513.06;;;26.67;25.43
37710;BME280;60223;34.854;-92.408;2022-09-21T03:27:58;100515.88;;;29.68;22.74
37710;BME280;60223;34.854;-92.408;2022-09-21T03:30:24;100512.50;;;28.95;23.00
37710;BME280;60223;34.854;-92.408;2022-09-21T03:32:52;100510.80;;;23.62;27.31
37710;BME280;60223;34.854;-92.408;2022-09-21T03:35:12;100504.01;;;27.57;23.51
37710;BME280;60223;34.854;-92.408;2022-09-21T03:37:41;100505.88;;;27.80;23.23
37710;BME280;60223;34.854;-92.408;2022-09-21T03:40:07;100505.19;;;28.76;22.04
37710;BME280;60223;34.854;-92.408;2022-09-21T03:42:30;100505.52;;;26.90;23.67
37710;BME280;60223;34.854;-92.408;2022-09-21T03:44:57;100502.84;;;25.00;25.17
37710;BME280;60223;34.854;-92.408;2022-09-21T03:47:23;100508.13;;;24.36;25.63
37710;BME280;60223;34.854;-92.408;2022-09-21T03:49:49;100502.57;;;25.69;25.39
37710;BME280;60223;34.854;-92.408;2022-09-21T03:52:14;100504.33;;;26.94;24.22
37710;BME280;60223;34.854;-92.408;2022-09-21T03:54:38;100504.61;;;27.82;23.30
37710;BME280;60223;34.854;-92.408;2022-09-21T03:57:05;100508.06;;;28.34;22.89
37710;BME280;60223;34.854;-92.408;2022-09-21T03:59:31;100509.38;;;28.44;23.14
37710;BME280;60223;34.854;-92.408;2022-09-21T04:01:56;100510.71;;;28.75;22.76
37710;BME280;60223;34.854;-92.408;2022-09-21T04:04:21;100513.86;;;28.84;22.69
37710;BME280;60223;34.854;-92.408;2022-09-21T04:06:48;100514.75;;;28.86;22.73
37710;BME280;60223;34.854;-92.408;2022-09-21T04:09:14;100515.83;;;29.28;22.48
37710;BME280;60223;34.854;-92.408;2022-09-21T04:11:39;100513.80;;;29.94;22.30
37710;BME280;60223;34.854;-92.408;2022-09-21T04:14:04;100510.12;;;29.99;22.35
37710;BME280;60223;34.854;-92.408;2022-09-21T04:16:30;100513.86;;;29.58;22.46
37710;BME280;60223;34.854;-92.408;2022-09-21T04:18:56;100514.56;;;29.57;22.38
37710;BME280;60223;34.854;-92.408;2022-09-21T04:21:31;100515.97;;;29.80;22.44
37710;BME280;60223;34.854;-92.408;2022-09-21T04:23:44;100517.73;;;29.85;22.46
37710;BME280;60223;34.854;-92.408;2022-09-21T04:26:19;100516.26;;;30.06;22.36
37710;BME280;60223;34.854;-92.408;2022-09-21T04:28:38;100518.42;;;30.02;22.44
37710;BME280;60223;34.854;-92.408;2022-09-21T04:31:03;100520.73;;;30.11;22.51
37710;BME280;60223;34.854;-92.408;2022-09-21T04:33:27;100524.11;;;30.06;22.62
37710;BME280;60223;34.854;-92.408;2022-09-21T04:35:57;100529.17;;;30.29;22.43
37710;BME280;60223;34.854;-92.408;2022-09-21T04:38:19;100529.23;;;30.01;22.57
37710;BME280;60223;34.854;-92.408;2022-09-21T04:43:19;100529.35;;;29.98;22.77
37710;BME280;60223;34.854;-92.408;2022-09-21T04:45:34;100529.28;;;30.37;22.70
37710;BME280;60223;34.854;-92.408;2022-09-21T04:48:07;100529.04;;;30.43;22.71
37710;BME280;60223;34.854;-92.408;2022-09-21T04:50:28;100524.47;;;30.57;22.65
37710;BME280;60223;34.854;-92.408;2022-09-21T04:52:52;100522.78;;;30.63;22.72
37710;BME280;60223;34.854;-92.408;2022-09-21T04:55:19;100520.67;;;30.46;22.79
37710;BME280;60223;34.854;-92.408;2022-09-21T04:57:46;100520.77;;;30.28;22.76
37710;BME280;60223;34.854;-92.408;2022-09-21T05:00:09;100519.19;;;30.32;22.80
37710;BME280;60223;34.854;-92.408;2022-09-21T05:02:35;100518.67;;;30.27;22.93
37710;BME280;60223;34.854;-92.408;2022-09-21T05:05:00;100518.86;;;30.45;22.83
37710;BME280;60223;34.854;-92.408;2022-09-21T05:07:26;100521.92;;;30.62;22.93
37710;BME280;60223;34.854;-92.408;2022-09-21T05:09:51;100520.55;;;30.43;22.91
37710;BME280;60223;34.854;-92.408;2022-09-21T05:12:15;100517.83;;;26.37;26.36
37710;BME280;60223;34.854;-92.408;2022-09-21T05:14:43;100518.73;;;24.13;28.01
37710;BME280;60223;34.854;-92.408;2022-09-21T05:17:09;100519.69;;;24.49;28.12
37710;BME280;60223;34.854;-92.408;2022-09-21T05:19:34;100519.36;;;25.34;27.04
37710;BME280;60223;34.854;-92.408;2022-09-21T05:21:57;100518.61;;;24.43;27.82
37710;BME280;60223;34.854;-92.408;2022-09-21T05:24:26;100517.36;;;23.01;29.13
37710;BME280;60223;34.854;-92.408;2022-09-21T05:26:52;100519.63;;;23.77;28.35
37710;BME280;60223;34.854;-92.408;2022-09-21T05:29:17;100521.63;;;23.57;28.39
37710;BME280;60223;34.854;-92.408;2022-09-21T05:31:41;100519.69;;;22.86;28.72
37710;BME280;60223;34.854;-92.408;2022-09-21T05:34:14;100523.86;;;24.25;27.40
37710;BME280;60223;34.854;-92.408;2022-09-21T05:36:43;100514.47;;;25.59;25.79
37710;BME280;60223;34.854;-92.408;2022-09-21T05:39:01;100519.22;;;23.05;27.87
37710;BME280;60223;34.854;-92.408;2022-09-21T05:41:25;100522.05;;;23.99;26.78
37710;BME280;60223;34.854;-92.408;2022-09-21T05:43:51;100516.22;;;23.45;27.52
37710;BME280;60223;34.854;-92.408;2022-09-21T05:46:26;100513.66;;;22.07;28.49
37710;BME280;60223;34.854;-92.408;2022-09-21T05:48:42;100515.05;;;24.95;25.60
37710;BME280;60223;34.854;-92.408;2022-09-21T05:51:09;100515.11;;;26.24;25.05
37710;BME280;60223;34.854;-92.408;2022-09-21T05:53:47;100519.80;;;26.45;24.91
37710;BME280;60223;34.854;-92.408;2022-09-21T05:56:01;100523.08;;;27.30;24.36
37710;BME280;60223;34.854;-92.408;2022-09-21T05:58:27;100522.19;;;27.82;23.79
37710;BME280;60223;34.854;-92.408;2022-09-21T06:00:58;100519.14;;;28.07;23.52
37710;BME280;60223;34.854;-92.408;2022-09-21T06:03:29;100518.95;;;28.96;22.94
37710;BME280;60223;34.854;-92.408;2022-09-21T06:05:40;100520.11;;;28.52;22.95
37710;BME280;60223;34.854;-92.408;2022-09-21T06:08:06;100525.61;;;29.08;22.77
37710;BME280;60223;34.854;-92.408;2022-09-21T06:10:32;100524.93;;;29.10;22.88
37710;BME280;60223;34.854;-92.408;2022-09-21T06:12:57;100523.92;;;29.17;22.84
37710;BME280;60223;34.854;-92.408;2022-09-21T06:15:21;100523.63;;;29.19;22.72
37710;BME280;60223;34.854;-92.408;2022-09-21T06:17:48;100525.25;;;29.47;22.59
37710;BME280;60223;34.854;-92.408;2022-09-21T06:20:14;100527.09;;;29.55;22.61
37710;BME280;60223;34.854;-92.408;2022-09-21T06:22:37;100529.15;;;29.29;22.76
37710;BME280;60223;34.854;-92.408;2022-09-21T06:25:05;100528.42;;;29.82;22.80
37710;BME280;60223;34.854;-92.408;2022-09-21T06:27:38;100523.25;;;29.95;22.58
37710;BME280;60223;34.854;-92.408;2022-09-21T06:29:56;100521.19;;;29.76;22.60
37710;BME280;60223;34.854;-92.408;2022-09-21T06:32:22;100519.82;;;30.26;22.32
37710;BME280;60223;34.854;-92.408;2022-09-21T06:34:44;100520.97;;;30.14;22.65
37710;BME280;60223;34.854;-92.408;2022-09-21T06:37:17;100522.14;;;29.70;22.78
37710;BME280;60223;34.854;-92.408;2022-09-21T06:39:38;100524.80;;;29.81;22.73
37710;BME280;60223;34.854;-92.408;2022-09-21T06:42:05;100524.42;;;29.81;22.83
37710;BME280;60223;34.854;-92.408;2022-09-21T06:44:29;100523.75;;;29.71;22.94
37710;BME280;60223;34.854;-92.408;2022-09-21T06:46:54;100522.82;;;29.71;23.01
37710;BME280;60223;34.854;-92.408;2022-09-21T06:49:20;100522.74;;;29.82;22.99
37710;BME280;60223;34.854;-92.408;2022-09-21T06:51:46;100522.04;;;30.10;22.84
37710;BME280;60223;34.854;-92.408;2022-09-21T06:54:11;100521.85;;;29.62;22.88
37710;BME280;60223;34.854;-92.408;2022-09-21T06:59:02;100522.90;;;30.23;22.89
37710;BME280;60223;34.854;-92.408;2022-09-21T07:01:28;100519.16;;;30.15;23.05
37710;BME280;60223;34.854;-92.408;2022-09-21T07:03:55;100520.65;;;30.14;23.08
37710;BME280;60223;34.854;-92.408;2022-09-21T07:06:20;100520.64;;;30.11;23.15
37710;BME280;60223;34.854;-92.408;2022-09-21T07:08:45;100524.90;;;29.83;23.08
37710;BME280;60223;34.854;-92.408;2022-09-21T07:11:10;100523.98;;;29.80;23.21
37710;BME280;60223;34.854;-92.408;2022-09-21T07:13:36;100520.17;;;30.11;23.13
37710;BME280;60223;34.854;-92.408;2022-09-21T07:16:05;100518.35;;;30.32;23.20
37710;BME280;60223;34.854;-92.408;2022-09-21T07:18:27;100517.12;;;30.09;23.24
37710;BME280;60223;34.854;-92.408;2022-09-21T07:20:53;100515.64;;;30.42;23.20
37710;BME280;60223;34.854;-92.408;2022-09-21T07:23:18;100514.45;;;30.03;23.17
37710;BME280;60223;34.854;-92.408;2022-09-21T07:25:45;100519.90;;;29.79;23.35
37710;BME280;60223;34.854;-92.408;2022-09-21T07:28:10;100522.52;;;29.95;23.31
37710;BME280;60223;34.854;-92.408;2022-09-21T07:30:34;100529.93;;;30.41;23.37
37710;BME280;60223;34.854;-92.408;2022-09-21T07:33:01;100533.61;;;30.27;23.32
37710;BME280;60223;34.854;-92.408;2022-09-21T07:35:27;100532.24;;;30.29;23.54
37710;BME280;60223;34.854;-92.408;2022-09-21T07:37:52;100529.36;;;29.85;23.55
37710;BME280;60223;34.854;-92.408;2022-09-21T07:40:17;100533.62;;;30.00;23.43
37710;BME280;60223;34.854;-92.408;2022-09-21T07:42:41;100532.85;;;29.88;23.57
37710;BME280;60223;34.854;-92.408;2022-09-21T07:45:10;100534.30;;;30.08;23.45
37710;BME280;60223;34.854;-92.408;2022-09-21T07:47:32;100534.83;;;30.11;23.47
37710;BME280;60223;34.854;-92.408;2022-09-21T07:49:57;100533.23;;;30.44;23.43
37710;BME280;60223;34.854;-92.408;2022-09-21T07:52:25;100534.74;;;30.64;23.50
37710;BME280;60223;34.854;-92.408;2022-09-21T07:54:51;100531.63;;;30.44;23.50
37710;BME280;60223;34.854;-92.408;2022-09-21T07:57:16;100531.67;;;30.23;23.49
37710;BME280;60223;34.854;-92.408;2022-09-21T07:59:42;100532.75;;;30.20;23.55
37710;BME280;60223;34.854;-92.408;2022-09-21T08:02:07;100531.91;;;30.23;23.55
37710;BME280;60223;34.854;-92.408;2022-09-21T08:04:33;100528.87;;;30.36;23.49
37710;BME280;60223;34.854;-92.408;2022-09-21T08:06:59;100530.38;;;30.80;23.55
37710;BME280;60223;34.854;-92.408;2022-09-21T08:09:24;100529.35;;;30.32;23.57
37710;BME280;60223;34.854;-92.408;2022-09-21T08:11:51;100530.67;;;30.24;23.67
37710;BME280;60223;34.854;-92.408;2022-09-21T08:14:14;100526.43;;;30.19;23.74
37710;BME280;60223;34.854;-92.408;2022-09-21T08:16:39;100529.81;;;30.39;23.60
37710;BME280;60223;34.854;-92.408;2022-09-21T08:19:04;100530.31;;;30.45;23.61
37710;BME280;60223;34.854;-92.408;2022-09-21T08:21:32;100528.44;;;30.35;23.70
37710;BME280;60223;34.854;-92.408;2022-09-21T08:23:57;100533.36;;;30.21;23.60
37710;BME280;60223;34.854;-92.408;2022-09-21T08:26:23;100534.82;;;30.61;23.75
37710;BME280;60223;34.854;-92.408;2022-09-21T08:28:50;100539.63;;;30.51;23.63
37710;BME280;60223;34.854;-92.408;2022-09-21T08:31:14;100540.24;;;30.39;23.75
37710;BME280;60223;34.854;-92.408;2022-09-21T08:33:40;100543.41;;;28.07;26.05
37710;BME280;60223;34.854;-92.408;2022-09-21T08:36:07;100539.52;;;24.99;28.26
37710;BME280;60223;34.854;-92.408;2022-09-21T08:38:36;100539.26;;;24.27;28.80
37710;BME280;60223;34.854;-92.408;2022-09-21T08:40:55;100543.04;;;24.11;29.31
37710;BME280;60223;34.854;-92.408;2022-09-21T08:43:28;100540.66;;;23.13;29.46
37710;BME280;60223;34.854;-92.408;2022-09-21T08:45:47;100536.06;;;22.66;29.71
37710;BME280;60223;34.854;-92.408;2022-09-21T08:48:18;100533.10;;;23.29;29.37
37710;BME280;60223;34.854;-92.408;2022-09-21T08:50:41;100533.39;;;23.20;28.93
37710;BME280;60223;34.854;-92.408;2022-09-21T08:53:09;100532.94;;;22.99;29.02
37710;BME280;60223;34.854;-92.408;2022-09-21T08:55:28;100532.05;;;22.44;29.29
37710;BME280;60223;34.854;-92.408;2022-09-21T08:57:56;100532.56;;;22.70;28.80
37710;BME280;60223;34.854;-92.408;2022-09-21T09:00:22;100532.96;;;22.39;28.97
37710;BME280;60223;34.854;-92.408;2022-09-21T09:05:30;100531.99;;;22.59;28.46
37710;BME280;60223;34.854;-92.408;2022-09-21T09:07:47;100533.45;;;22.58;28.06
37710;BME280;60223;34.854;-92.408;2022-09-21T09:12:39;100542.03;;;25.62;25.73
37710;BME280;60223;34.854;-92.408;2022-09-21T09:15:04;100535.97;;;27.07;24.75
37710;BME280;60223;34.854;-92.408;2022-09-21T09:17:35;100535.48;;;27.81;24.24
37710;BME280;60223;34.854;-92.408;2022-09-21T09:19:57;100536.40;;;27.62;24.14
37710;BME280;60223;34.854;-92.408;2022-09-21T09:22:16;100540.03;;;28.11;23.77
37710;BME280;60223;34.854;-92.408;2022-09-21T09:24:40;100539.68;;;28.61;23.46
37710;BME280;60223;34.854;-92.408;2022-09-21T09:27:05;100540.63;;;28.87;23.20
37710;BME280;60223;34.854;-92.408;2022-09-21T09:29:32;100539.45;;;29.48;22.96
37710;BME280;60223;34.854;-92.408;2022-09-21T09:31:52;100540.25;;;29.14;22.86
37710;BME280;60223;34.854;-92.408;2022-09-21T09:34:23;100541.32;;;29.39;22.77
37710;BME280;60223;34.854;-92.408;2022-09-21T09:36:51;100543.41;;;29.13;23.06
37710;BME280;60223;34.854;-92.408;2022-09-21T09:39:14;100544.14;;;29.26;23.04
37710;BME280;60223;34.854;-92.408;2022-09-21T09:41:51;100545.18;;;28.91;23.08
37710;BME280;60223;34.854;-92.408;2022-09-21T09:44:15;100545.04;;;29.11;23.10
37710;BME280;60223;34.854;-92.408;2022-09-21T09:46:35;100546.03;;;29.64;22.96
37710;BME280;60223;34.854;-92.408;2022-09-21T09:49:08;100549.11;;;29.91;22.66
37710;BME280;60223;34.854;-92.408;2022-09-21T09:51:19;100551.13;;;29.48;22.81
37710;BME280;60223;34.854;-92.408;2022-09-21T09:53:45;100552.31;;;29.77;22.83
37710;BME280;60223;34.854;-92.408;2022-09-21T09:56:08;100553.17;;;29.74;22.78
37710;BME280;60223;34.854;-92.408;2022-09-21T09:58:41;100556.50;;;29.65;22.83
37710;BME280;60223;34.854;-92.408;2022-09-21T10:01:01;100555.69;;;29.89;22.71
37710;BME280;60223;34.854;-92.408;2022-09-21T10:03:26;100555.98;;;30.12;22.74
37710;BME280;60223;34.854;-92.408;2022-09-21T10:05:52;100554.75;;;30.05;22.68
37710;BME280;60223;34.854;-92.408;2022-09-21T10:10:44;100555.88;;;30.36;22.53
37710;BME280;60223;34.854;-92.408;2022-09-21T10:13:24;100552.21;;;30.10;22.73
37710;BME280;60223;34.854;-92.408;2022-09-21T10:15:34;100551.86;;;29.95;22.71
37710;BME280;60223;34.854;-92.408;2022-09-21T10:18:04;100554.51;;;30.12;22.82
37710;BME280;60223;34.854;-92.408;2022-09-21T10:20:26;100557.30;;;30.35;22.70
37710;BME280;60223;34.854;-92.408;2022-09-21T10:22:52;100558.33;;;30.43;22.66
37710;BME280;60223;34.854;-92.408;2022-09-21T10:25:18;100562.12;;;30.48;22.68
37710;BME280;60223;34.854;-92.408;2022-09-21T10:27:46;100565.06;;;30.56;22.65
37710;BME280;60223;34.854;-92.408;2022-09-21T10:30:12;100567.20;;;30.74;22.49
37710;BME280;60223;34.854;-92.408;2022-09-21T10:32:33;100562.41;;;30.54;22.67
37710;BME280;60223;34.854;-92.408;2022-09-21T10:35:14;100562.61;;;30.23;22.79
37710;BME280;60223;34.854;-92.408;2022-09-21T10:37:27;100561.66;;;30.26;22.84
37710;BME280;60223;34.854;-92.408;2022-09-21T10:39:51;100563.33;;;30.41;22.93
37710;BME280;60223;34.854;-92.408;2022-09-21T10:42:17;100568.02;;;30.15;22.96
37710;BME280;60223;34.854;-92.408;2022-09-21T10:44:42;100568.98;;;30.74;22.90
37710;BME280;60223;34.854;-92.408;2022-09-21T10:47:15;100568.66;;;30.69;22.79
37710;BME280;60223;34.854;-92.408;2022-09-21T10:49:41;100569.31;;;30.42;22.85
37710;BME280;60223;34.854;-92.408;2022-09-21T10:51:59;100568.39;;;30.49;22.78
37710;BME280;60223;34.854;-92.408;2022-09-21T10:54:24;100566.06;;;30.57;22.75
37710;BME280;60223;34.854;-92.408;2022-09-21T10:56:53;100563.71;;;30.84;22.74
37710;BME280;60223;34.854;-92.408;2022-09-21T10:59:21;100565.50;;;30.64;22.93
37710;BME280;60223;34.854;-92.408;2022-09-21T11:01:45;100567.02;;;30.55;22.84
37710;BME280;60223;34.854;-92.408;2022-09-21T11:04:11;100565.03;;;30.86;22.83
37710;BME280;60223;34.854;-92.408;2022-09-21T11:06:34;100566.51;;;30.55;22.91
37710;BME280;60223;34.854;-92.408;2022-09-21T11:09:01;100570.66;;;30.84;22.84
37710;BME280;60223;34.854;-92.408;2022-09-21T11:11:36;100575.83;;;30.81;22.89
37710;BME280;60223;34.854;-92.408;2022-09-21T11:13:52;100579.54;;;30.35;22.96
37710;BME280;60223;34.854;-92.408;2022-09-21T11:16:19;100584.41;;;30.64;22.91
37710;BME280;60223;34.854;-92.408;2022-09-21T11:18:45;100587.38;;;30.59;22.99
37710;BME280;60223;34.854;-92.408;2022-09-21T11:21:11;100587.32;;;30.69;22.93
37710;BME280;60223;34.854;-92.408;2022-09-21T11:23:42;100588.47;;;30.21;23.15
37710;BME280;60223;34.854;-92.408;2022-09-21T11:26:01;100590.38;;;30.81;23.12
37710;BME280;60223;34.854;-92.408;2022-09-21T11:28:24;100590.57;;;30.04;23.56
37710;BME280;60223;34.854;-92.408;2022-09-21T11:31:01;100593.30;;;30.18;23.49
37710;BME280;60223;34.854;-92.408;2022-09-21T11:33:21;100597.09;;;30.65;23.14
37710;BME280;60223;34.854;-92.408;2022-09-21T11:35:44;100600.90;;;30.35;23.20
37710;BME280;60223;34.854;-92.408;2022-09-21T11:38:11;100603.67;;;30.58;23.42
37710;BME280;60223;34.854;-92.408;2022-09-21T11:40:38;100603.33;;;30.39;23.38
37710;BME280;60223;34.854;-92.408;2022-09-21T11:43:02;100607.15;;;30.00;23.62
37710;BME280;60223;34.854;-92.408;2022-09-21T11:45:28;100606.92;;;30.36;23.57
37710;BME280;60223;34.854;-92.408;2022-09-21T11:47:54;100605.68;;;30.33;23.39
37710;BME280;60223;34.854;-92.408;2022-09-21T11:50:23;100606.76;;;30.21;23.49
37710;BME280;60223;34.854;-92.408;2022-09-21T11:52:45;100610.55;;;30.39;23.38
37710;BME280;60223;34.854;-92.408;2022-09-21T11:55:17;100612.41;;;30.55;23.28
37710;BME280;60223;34.854;-92.408;2022-09-21T11:57:30;100616.51;;;30.70;23.11
37710;BME280;60223;34.854;-92.408;2022-09-21T12:00:09;100615.66;;;30.93;23.39
37710;BME280;60223;34.854;-92.408;2022-09-21T12:02:31;100614.20;;;30.36;23.69
37710;BME280;60223;34.854;-92.408;2022-09-21T12:04:52;100611.86;;;30.12;24.11
37710;BME280;60223;34.854;-92.408;2022-09-21T12:07:24;100614.25;;;30.34;23.83
37710;BME280;60223;34.854;-92.408;2022-09-21T12:09:56;100615.63;;;30.58;23.88
37710;BME280;60223;34.854;-92.408;2022-09-21T12:12:08;100620.15;;;30.66;23.90
37710;BME280;60223;34.854;-92.408;2022-09-21T12:14:32;100622.89;;;30.69;23.98
37710;BME280;60223;34.854;-92.408;2022-09-21T12:16:58;100624.75;;;30.48;24.08
37710;BME280;60223;34.854;-92.408;2022-09-21T12:19:25;100623.81;;;31.11;23.92
37710;BME280;60223;34.854;-92.408;2022-09-21T12:21:46;100628.63;;;30.78;23.90
37710;BME280;60223;34.854;-92.408;2022-09-21T12:24:14;100632.80;;;31.08;23.94
37710;BME280;60223;34.854;-92.408;2022-09-21T12:26:39;100636.00;;;30.65;24.12
37710;BME280;60223;34.854;-92.408;2022-09-21T12:28:59;100640.70;;;30.70;24.27
37710;BME280;60223;34.854;-92.408;2022-09-21T12:31:29;100642.28;;;30.92;24.05
37710;BME280;60223;34.854;-92.408;2022-09-21T12:33:54;100648.57;;;30.48;25.35
37710;BME280;60223;34.854;-92.408;2022-09-21T12:36:23;100651.84;;;30.50;25.77
37710;BME280;60223;34.854;-92.408;2022-09-21T12:38:46;100653.02;;;30.07;25.96
37710;BME280;60223;34.854;-92.408;2022-09-21T12:41:14;100657.71;;;30.18;27.57
37710;BME280;60223;34.854;-92.408;2022-09-21T12:43:36;100659.92;;;30.06;26.77
37710;BME280;60223;34.854;-92.408;2022-09-21T12:46:02;100662.86;;;30.81;25.00